sensor_id;sensor_type;location;lat;lon;timestamp;P1;durP1;ratioP1;P2;durP2;ratioP2
39426;SDS011;25938;48.470;1.486;2023-04-24T00:01:15;2.67;;;0.82;;
39426;SDS011;25938;48.470;1.486;2023-04-24T00:03:42;2.78;;;0.95;;
39426;SDS011;25938;48.470;1.486;2023-04-24T00:06:07;2.78;;;0.70;;
39426;SDS011;25938;48.470;1.486;2023-04-24T00:08:33;2.97;;;1.00;;
39426;SDS011;25938;48.470;1.486;2023-04-24T00:11:00;4.05;;;1.23;;
39426;SDS011;25938;48.470;1.486;2023-04-24T00:13:25;2.50;;;1.20;;
39426;SDS011;25938;48.470;1.486;2023-04-24T00:15:53;1.98;;;0.80;;
39426;SDS011;25938;48.470;1.486;2023-04-24T00:18:19;2.65;;;0.85;;
39426;SDS011;25938;48.470;1.486;2023-04-24T00:20:45;2.20;;;0.93;;
39426;SDS011;25938;48.470;1.486;2023-04-24T00:23:11;1.77;;;1.10;;
39426;SDS011;25938;48.470;1.486;2023-04-24T00:25:37;5.10;;;0.80;;
39426;SDS011;25938;48.470;1.486;2023-04-24T00:28:03;4.90;;;1.05;;
39426;SDS011;25938;48.470;1.486;2023-04-24T00:30:29;3.97;;;0.80;;
39426;SDS011;25938;48.470;1.486;2023-04-24T00:32:55;2.20;;;0.90;;
39426;SDS011;25938;48.470;1.486;2023-04-24T00:35:20;2.08;;;1.13;;
39426;SDS011;25938;48.470;1.486;2023-04-24T00:37:46;3.75;;;0.90;;
39426;SDS011;25938;48.470;1.486;2023-04-24T00:40:12;2.45;;;1.02;;
39426;SDS011;25938;48.470;1.486;2023-04-24T00:42:38;2.28;;;0.80;;
39426;SDS011;25938;48.470;1.486;2023-04-24T00:45:05;3.08;;;0.82;;
39426;SDS011;25938;48.470;1.486;2023-04-24T00:47:32;2.20;;;0.90;;
39426;SDS011;25938;48.470;1.486;2023-04-24T00:49:58;1.88;;;0.90;;
39426;SDS011;25938;48.470;1.486;2023-04-24T00:52:26;2.08;;;0.73;;
39426;SDS011;25938;48.470;1.486;2023-04-24T00:54:51;4.50;;;1.27;;
39426;SDS011;25938;48.470;1.486;2023-04-24T00:57:17;4.95;;;1.17;;
39426;SDS011;25938;48.470;1.486;2023-04-24T00:59:43;2.63;;;1.00;;
39426;SDS011;25938;48.470;1.486;2023-04-24T01:02:09;5.03;;;1.05;;
39426;SDS011;25938;48.470;1.486;2023-04-24T01:04:36;3.60;;;1.58;;
39426;SDS011;25938;48.470;1.486;2023-04-24T01:07:02;4.13;;;1.58;;
39426;SDS011;25938;48.470;1.486;2023-04-24T01:09:28;3.63;;;1.63;;
39426;SDS011;25938;48.470;1.486;2023-04-24T01:11:54;1.70;;;1.10;;
39426;SDS011;25938;48.470;1.486;2023-04-24T01:14:20;1.75;;;0.80;;
39426;SDS011;25938;48.470;1.486;2023-04-24T01:16:45;4.22;;;1.30;;
39426;SDS011;25938;48.470;1.486;2023-04-24T01:19:11;2.17;;;1.63;;
39426;SDS011;25938;48.470;1.486;2023-04-24T01:21:39;3.78;;;1.40;;
39426;SDS011;25938;48.470;1.486;2023-04-24T01:24:07;2.30;;;0.90;;
39426;SDS011;25938;48.470;1.486;2023-04-24T01:26:32;3.20;;;1.27;;
39426;SDS011;25938;48.470;1.486;2023-04-24T01:28:58;2.50;;;1.60;;
39426;SDS011;25938;48.470;1.486;2023-04-24T01:31:24;2.78;;;1.52;;
39426;SDS011;25938;48.470;1.486;2023-04-24T01:33:50;2.08;;;1.10;;
39426;SDS011;25938;48.470;1.486;2023-04-24T01:36:16;3.53;;;1.42;;
39426;SDS011;25938;48.470;1.486;2023-04-24T01:38:43;3.72;;;1.75;;
39426;SDS011;25938;48.470;1.486;2023-04-24T01:41:09;4.88;;;1.30;;
39426;SDS011;25938;48.470;1.486;2023-04-24T01:43:35;2.25;;;1.20;;
39426;SDS011;25938;48.470;1.486;2023-04-24T01:46:01;2.03;;;1.00;;
39426;SDS011;25938;48.470;1.486;2023-04-24T01:48:27;7.72;;;1.75;;
39426;SDS011;25938;48.470;1.486;2023-04-24T01:50:53;2.50;;;1.13;;
39426;SDS011;25938;48.470;1.486;2023-04-24T01:53:18;6.10;;;1.27;;
39426;SDS011;25938;48.470;1.486;2023-04-24T01:55:44;2.53;;;1.13;;
39426;SDS011;25938;48.470;1.486;2023-04-24T01:58:10;2.28;;;0.95;;
39426;SDS011;25938;48.470;1.486;2023-04-24T02:00:35;4.63;;;1.83;;
39426;SDS011;25938;48.470;1.486;2023-04-24T02:03:01;2.55;;;1.40;;
39426;SDS011;25938;48.470;1.486;2023-04-24T02:05:27;4.38;;;1.02;;
39426;SDS011;25938;48.470;1.486;2023-04-24T02:07:53;2.05;;;0.98;;
39426;SDS011;25938;48.470;1.486;2023-04-24T02:10:18;2.00;;;1.52;;
39426;SDS011;25938;48.470;1.486;2023-04-24T02:12:44;3.00;;;1.40;;
39426;SDS011;25938;48.470;1.486;2023-04-24T02:15:10;2.03;;;1.27;;
39426;SDS011;25938;48.470;1.486;2023-04-24T02:17:36;3.08;;;0.93;;
39426;SDS011;25938;48.470;1.486;2023-04-24T02:20:02;2.40;;;1.58;;
39426;SDS011;25938;48.470;1.486;2023-04-24T02:22:28;2.85;;;1.40;;
39426;SDS011;25938;48.470;1.486;2023-04-24T02:24:54;4.68;;;1.65;;
39426;SDS011;25938;48.470;1.486;2023-04-24T02:27:20;4.43;;;1.83;;
39426;SDS011;25938;48.470;1.486;2023-04-24T02:29:45;4.93;;;1.48;;
39426;SDS011;25938;48.470;1.486;2023-04-24T02:32:11;1.33;;;1.23;;
39426;SDS011;25938;48.470;1.486;2023-04-24T02:34:37;1.52;;;1.30;;
39426;SDS011;25938;48.470;1.486;2023-04-24T02:37:03;4.53;;;1.52;;
39426;SDS011;25938;48.470;1.486;2023-04-24T02:39:28;3.83;;;1.30;;
39426;SDS011;25938;48.470;1.486;2023-04-24T02:41:54;2.50;;;0.88;;
39426;SDS011;25938;48.470;1.486;2023-04-24T02:44:20;5.10;;;1.27;;
39426;SDS011;25938;48.470;1.486;2023-04-24T02:46:46;3.78;;;1.10;;
39426;SDS011;25938;48.470;1.486;2023-04-24T02:49:12;3.47;;;1.25;;
39426;SDS011;25938;48.470;1.486;2023-04-24T02:51:38;2.80;;;1.25;;
39426;SDS011;25938;48.470;1.486;2023-04-24T02:54:06;2.65;;;1.10;;
39426;SDS011;25938;48.470;1.486;2023-04-24T02:56:32;2.95;;;1.33;;
39426;SDS011;25938;48.470;1.486;2023-04-24T02:58:58;4.15;;;1.23;;
39426;SDS011;25938;48.470;1.486;2023-04-24T03:01:24;2.15;;;1.88;;
39426;SDS011;25938;48.470;1.486;2023-04-24T03:03:50;4.15;;;1.38;;
39426;SDS011;25938;48.470;1.486;2023-04-24T03:06:15;2.97;;;1.15;;
39426;SDS011;25938;48.470;1.486;2023-04-24T03:08:41;3.08;;;1.52;;
39426;SDS011;25938;48.470;1.486;2023-04-24T03:11:06;8.48;;;1.20;;
39426;SDS011;25938;48.470;1.486;2023-04-24T03:13:32;3.08;;;1.02;;
39426;SDS011;25938;48.470;1.486;2023-04-24T03:15:58;3.92;;;1.08;;
39426;SDS011;25938;48.470;1.486;2023-04-24T03:18:23;2.53;;;1.15;;
39426;SDS011;25938;48.470;1.486;2023-04-24T03:20:49;4.30;;;1.20;;
39426;SDS011;25938;48.470;1.486;2023-04-24T03:23:15;2.63;;;1.40;;
39426;SDS011;25938;48.470;1.486;2023-04-24T03:25:40;4.50;;;1.42;;
39426;SDS011;25938;48.470;1.486;2023-04-24T03:28:07;2.58;;;1.10;;
39426;SDS011;25938;48.470;1.486;2023-04-24T03:30:33;3.63;;;1.40;;
39426;SDS011;25938;48.470;1.486;2023-04-24T03:32:59;2.05;;;1.00;;
39426;SDS011;25938;48.470;1.486;2023-04-24T03:35:25;2.83;;;0.88;;
39426;SDS011;25938;48.470;1.486;2023-04-24T03:37:50;2.08;;;0.90;;
39426;SDS011;25938;48.470;1.486;2023-04-24T03:40:16;4.60;;;1.60;;
39426;SDS011;25938;48.470;1.486;2023-04-24T03:42:42;3.25;;;1.08;;
39426;SDS011;25938;48.470;1.486;2023-04-24T03:45:08;3.67;;;1.00;;
39426;SDS011;25938;48.470;1.486;2023-04-24T03:47:34;3.92;;;1.17;;
39426;SDS011;25938;48.470;1.486;2023-04-24T03:49:59;3.45;;;1.63;;
39426;SDS011;25938;48.470;1.486;2023-04-24T03:52:25;2.10;;;1.02;;
39426;SDS011;25938;48.470;1.486;2023-04-24T03:54:51;3.03;;;1.42;;
39426;SDS011;25938;48.470;1.486;2023-04-24T03:57:16;2.67;;;1.10;;
39426;SDS011;25938;48.470;1.486;2023-04-24T03:59:42;6.38;;;1.35;;
39426;SDS011;25938;48.470;1.486;2023-04-24T04:02:07;2.10;;;1.30;;
39426;SDS011;25938;48.470;1.486;2023-04-24T04:04:33;6.65;;;1.60;;
39426;SDS011;25938;48.470;1.486;2023-04-24T04:06:59;2.28;;;1.20;;
39426;SDS011;25938;48.470;1.486;2023-04-24T04:09:28;4.75;;;1.00;;
39426;SDS011;25938;48.470;1.486;2023-04-24T04:11:54;3.05;;;1.00;;
39426;SDS011;25938;48.470;1.486;2023-04-24T04:14:20;2.38;;;1.15;;
39426;SDS011;25938;48.470;1.486;2023-04-24T04:16:46;2.50;;;0.90;;
39426;SDS011;25938;48.470;1.486;2023-04-24T04:19:12;2.72;;;1.00;;
39426;SDS011;25938;48.470;1.486;2023-04-24T04:21:37;2.92;;;1.02;;
39426;SDS011;25938;48.470;1.486;2023-04-24T04:24:03;2.58;;;1.98;;
39426;SDS011;25938;48.470;1.486;2023-04-24T04:26:30;4.43;;;1.30;;
39426;SDS011;25938;48.470;1.486;2023-04-24T04:28:57;2.95;;;0.98;;
39426;SDS011;25938;48.470;1.486;2023-04-24T04:31:23;1.35;;;0.75;;
39426;SDS011;25938;48.470;1.486;2023-04-24T04:33:49;2.63;;;1.02;;
39426;SDS011;25938;48.470;1.486;2023-04-24T04:36:15;3.45;;;1.30;;
39426;SDS011;25938;48.470;1.486;2023-04-24T04:38:42;2.95;;;1.50;;
39426;SDS011;25938;48.470;1.486;2023-04-24T04:41:08;3.63;;;0.90;;
39426;SDS011;25938;48.470;1.486;2023-04-24T04:43:33;4.25;;;1.40;;
39426;SDS011;25938;48.470;1.486;2023-04-24T04:45:59;4.35;;;1.20;;
39426;SDS011;25938;48.470;1.486;2023-04-24T04:48:26;1.63;;;1.25;;
39426;SDS011;25938;48.470;1.486;2023-04-24T04:50:52;2.72;;;1.02;;
39426;SDS011;25938;48.470;1.486;2023-04-24T04:53:17;3.08;;;1.30;;
39426;SDS011;25938;48.470;1.486;2023-04-24T04:55:43;4.55;;;1.42;;
39426;SDS011;25938;48.470;1.486;2023-04-24T04:58:09;3.85;;;1.20;;
39426;SDS011;25938;48.470;1.486;2023-04-24T05:00:34;5.47;;;1.85;;
39426;SDS011;25938;48.470;1.486;2023-04-24T05:03:02;3.00;;;1.45;;
39426;SDS011;25938;48.470;1.486;2023-04-24T05:05:28;4.05;;;1.40;;
39426;SDS011;25938;48.470;1.486;2023-04-24T05:07:54;3.13;;;1.80;;
39426;SDS011;25938;48.470;1.486;2023-04-24T05:10:20;4.90;;;2.58;;
39426;SDS011;25938;48.470;1.486;2023-04-24T05:12:45;3.42;;;1.58;;
39426;SDS011;25938;48.470;1.486;2023-04-24T05:15:11;2.20;;;1.40;;
39426;SDS011;25938;48.470;1.486;2023-04-24T05:17:36;1.90;;;1.40;;
39426;SDS011;25938;48.470;1.486;2023-04-24T05:20:04;2.65;;;1.88;;
39426;SDS011;25938;48.470;1.486;2023-04-24T05:22:31;2.20;;;1.40;;
39426;SDS011;25938;48.470;1.486;2023-04-24T05:24:56;3.70;;;2.20;;
39426;SDS011;25938;48.470;1.486;2023-04-24T05:27:22;4.72;;;1.60;;
39426;SDS011;25938;48.470;1.486;2023-04-24T05:29:48;3.72;;;1.80;;
39426;SDS011;25938;48.470;1.486;2023-04-24T05:32:14;4.40;;;2.60;;
39426;SDS011;25938;48.470;1.486;2023-04-24T05:34:39;2.67;;;1.85;;
39426;SDS011;25938;48.470;1.486;2023-04-24T05:37:05;3.47;;;1.40;;
39426;SDS011;25938;48.470;1.486;2023-04-24T05:39:33;3.38;;;1.52;;
39426;SDS011;25938;48.470;1.486;2023-04-24T05:42:00;2.80;;;1.55;;
39426;SDS011;25938;48.470;1.486;2023-04-24T05:44:26;4.60;;;1.98;;
39426;SDS011;25938;48.470;1.486;2023-04-24T05:46:51;4.93;;;2.58;;
39426;SDS011;25938;48.470;1.486;2023-04-24T05:49:17;5.07;;;1.38;;
39426;SDS011;25938;48.470;1.486;2023-04-24T05:51:43;8.55;;;2.13;;
39426;SDS011;25938;48.470;1.486;2023-04-24T05:54:08;4.03;;;1.80;;
39426;SDS011;25938;48.470;1.486;2023-04-24T05:56:37;4.10;;;1.65;;
39426;SDS011;25938;48.470;1.486;2023-04-24T05:59:02;3.25;;;1.48;;
39426;SDS011;25938;48.470;1.486;2023-04-24T06:01:28;2.17;;;1.60;;
39426;SDS011;25938;48.470;1.486;2023-04-24T06:03:54;3.53;;;1.67;;
39426;SDS011;25938;48.470;1.486;2023-04-24T06:06:20;2.05;;;1.45;;
39426;SDS011;25938;48.470;1.486;2023-04-24T06:11:24;3.67;;;1.52;;
39426;SDS011;25938;48.470;1.486;2023-04-24T06:13:50;3.00;;;1.60;;
39426;SDS011;25938;48.470;1.486;2023-04-24T06:16:16;4.80;;;1.80;;
39426;SDS011;25938;48.470;1.486;2023-04-24T06:18:42;4.30;;;1.48;;
39426;SDS011;25938;48.470;1.486;2023-04-24T06:21:08;3.45;;;1.58;;
39426;SDS011;25938;48.470;1.486;2023-04-24T06:23:33;7.18;;;1.92;;
39426;SDS011;25938;48.470;1.486;2023-04-24T06:25:59;2.80;;;1.48;;
39426;SDS011;25938;48.470;1.486;2023-04-24T06:28:25;2.67;;;1.55;;
39426;SDS011;25938;48.470;1.486;2023-04-24T06:30:51;6.07;;;2.22;;
39426;SDS011;25938;48.470;1.486;2023-04-24T06:33:16;1.70;;;1.33;;
39426;SDS011;25938;48.470;1.486;2023-04-24T06:35:42;3.13;;;1.75;;
39426;SDS011;25938;48.470;1.486;2023-04-24T06:38:08;4.57;;;1.90;;
39426;SDS011;25938;48.470;1.486;2023-04-24T06:40:33;3.60;;;1.40;;
39426;SDS011;25938;48.470;1.486;2023-04-24T06:42:59;3.60;;;1.33;;
39426;SDS011;25938;48.470;1.486;2023-04-24T06:45:27;2.05;;;1.80;;
39426;SDS011;25938;48.470;1.486;2023-04-24T06:47:53;1.85;;;1.65;;
39426;SDS011;25938;48.470;1.486;2023-04-24T06:50:19;3.10;;;1.92;;
39426;SDS011;25938;48.470;1.486;2023-04-24T06:52:45;2.40;;;2.10;;
39426;SDS011;25938;48.470;1.486;2023-04-24T06:55:10;2.80;;;1.38;;
39426;SDS011;25938;48.470;1.486;2023-04-24T06:57:36;3.45;;;1.75;;
39426;SDS011;25938;48.470;1.486;2023-04-24T07:00:03;4.13;;;1.70;;
39426;SDS011;25938;48.470;1.486;2023-04-24T07:02:31;3.58;;;2.17;;
39426;SDS011;25938;48.470;1.486;2023-04-24T07:04:57;4.63;;;1.92;;
39426;SDS011;25938;48.470;1.486;2023-04-24T07:07:22;4.70;;;2.42;;
39426;SDS011;25938;48.470;1.486;2023-04-24T07:09:48;3.47;;;2.00;;
39426;SDS011;25938;48.470;1.486;2023-04-24T07:12:15;2.20;;;1.65;;
39426;SDS011;25938;48.470;1.486;2023-04-24T07:14:42;5.63;;;1.95;;
39426;SDS011;25938;48.470;1.486;2023-04-24T07:17:07;3.35;;;2.17;;
39426;SDS011;25938;48.470;1.486;2023-04-24T07:19:33;4.50;;;2.38;;
39426;SDS011;25938;48.470;1.486;2023-04-24T07:22:02;4.43;;;2.38;;
39426;SDS011;25938;48.470;1.486;2023-04-24T07:24:28;3.92;;;2.15;;
39426;SDS011;25938;48.470;1.486;2023-04-24T07:26:54;7.82;;;3.95;;
39426;SDS011;25938;48.470;1.486;2023-04-24T07:29:20;3.13;;;2.15;;
39426;SDS011;25938;48.470;1.486;2023-04-24T07:31:46;2.75;;;2.28;;
39426;SDS011;25938;48.470;1.486;2023-04-24T07:34:12;5.78;;;2.17;;
39426;SDS011;25938;48.470;1.486;2023-04-24T07:36:37;4.10;;;2.03;;
39426;SDS011;25938;48.470;1.486;2023-04-24T07:39:04;3.65;;;1.63;;
39426;SDS011;25938;48.470;1.486;2023-04-24T07:41:30;3.85;;;2.13;;
39426;SDS011;25938;48.470;1.486;2023-04-24T07:43:56;3.45;;;2.33;;
39426;SDS011;25938;48.470;1.486;2023-04-24T07:46:22;5.25;;;2.70;;
39426;SDS011;25938;48.470;1.486;2023-04-24T07:48:48;4.43;;;2.75;;
39426;SDS011;25938;48.470;1.486;2023-04-24T07:51:14;3.85;;;2.42;;
39426;SDS011;25938;48.470;1.486;2023-04-24T07:53:40;2.97;;;1.92;;
39426;SDS011;25938;48.470;1.486;2023-04-24T07:56:06;4.45;;;2.65;;
39426;SDS011;25938;48.470;1.486;2023-04-24T07:58:32;6.78;;;2.40;;
39426;SDS011;25938;48.470;1.486;2023-04-24T08:00:57;7.63;;;4.22;;
39426;SDS011;25938;48.470;1.486;2023-04-24T08:03:23;3.33;;;2.85;;
39426;SDS011;25938;48.470;1.486;2023-04-24T08:05:49;4.82;;;2.72;;
39426;SDS011;25938;48.470;1.486;2023-04-24T08:08:16;4.43;;;3.55;;
39426;SDS011;25938;48.470;1.486;2023-04-24T08:10:41;4.57;;;2.83;;
39426;SDS011;25938;48.470;1.486;2023-04-24T08:13:08;3.83;;;3.33;;
39426;SDS011;25938;48.470;1.486;2023-04-24T08:15:40;6.43;;;3.10;;
39426;SDS011;25938;48.470;1.486;2023-04-24T08:18:05;4.20;;;3.08;;
39426;SDS011;25938;48.470;1.486;2023-04-24T08:20:32;6.15;;;2.88;;
39426;SDS011;25938;48.470;1.486;2023-04-24T08:22:57;3.40;;;2.85;;
39426;SDS011;25938;48.470;1.486;2023-04-24T08:25:23;4.47;;;3.17;;
39426;SDS011;25938;48.470;1.486;2023-04-24T08:27:50;7.50;;;3.47;;
39426;SDS011;25938;48.470;1.486;2023-04-24T08:30:15;5.20;;;2.95;;
39426;SDS011;25938;48.470;1.486;2023-04-24T08:32:41;5.60;;;3.25;;
39426;SDS011;25938;48.470;1.486;2023-04-24T08:35:07;7.20;;;3.25;;
39426;SDS011;25938;48.470;1.486;2023-04-24T08:37:34;5.95;;;3.45;;
39426;SDS011;25938;48.470;1.486;2023-04-24T08:40:00;4.10;;;2.60;;
39426;SDS011;25938;48.470;1.486;2023-04-24T08:42:27;3.28;;;2.42;;
39426;SDS011;25938;48.470;1.486;2023-04-24T08:44:54;4.22;;;2.15;;
39426;SDS011;25938;48.470;1.486;2023-04-24T08:47:20;6.47;;;3.05;;
39426;SDS011;25938;48.470;1.486;2023-04-24T08:49:47;3.72;;;1.58;;
39426;SDS011;25938;48.470;1.486;2023-04-24T08:52:15;6.13;;;3.33;;
39426;SDS011;25938;48.470;1.486;2023-04-24T08:54:41;4.50;;;2.88;;
39426;SDS011;25938;48.470;1.486;2023-04-24T08:57:08;6.50;;;3.08;;
39426;SDS011;25938;48.470;1.486;2023-04-24T08:59:36;4.45;;;2.72;;
39426;SDS011;25938;48.470;1.486;2023-04-24T09:02:03;4.05;;;2.72;;
39426;SDS011;25938;48.470;1.486;2023-04-24T09:04:29;4.22;;;2.90;;
39426;SDS011;25938;48.470;1.486;2023-04-24T09:06:57;5.20;;;3.25;;
39426;SDS011;25938;48.470;1.486;2023-04-24T09:09:24;4.53;;;2.83;;
39426;SDS011;25938;48.470;1.486;2023-04-24T09:11:51;4.50;;;2.58;;
39426;SDS011;25938;48.470;1.486;2023-04-24T09:14:19;5.95;;;2.88;;
39426;SDS011;25938;48.470;1.486;2023-04-24T09:16:46;5.10;;;3.13;;
39426;SDS011;25938;48.470;1.486;2023-04-24T09:19:12;3.92;;;1.45;;
39426;SDS011;25938;48.470;1.486;2023-04-24T09:21:38;4.40;;;2.75;;
39426;SDS011;25938;48.470;1.486;2023-04-24T09:24:06;4.47;;;2.88;;
39426;SDS011;25938;48.470;1.486;2023-04-24T09:26:34;5.60;;;3.55;;
39426;SDS011;25938;48.470;1.486;2023-04-24T09:29:01;6.20;;;3.13;;
39426;SDS011;25938;48.470;1.486;2023-04-24T09:31:28;4.22;;;3.42;;
39426;SDS011;25938;48.470;1.486;2023-04-24T09:33:55;7.07;;;2.88;;
39426;SDS011;25938;48.470;1.486;2023-04-24T09:36:30;5.40;;;2.65;;
39426;SDS011;25938;48.470;1.486;2023-04-24T09:39:02;4.03;;;2.88;;
39426;SDS011;25938;48.470;1.486;2023-04-24T09:41:33;4.95;;;3.85;;
39426;SDS011;25938;48.470;1.486;2023-04-24T09:46:59;4.97;;;2.70;;
39426;SDS011;25938;48.470;1.486;2023-04-24T09:49:27;4.47;;;2.53;;
39426;SDS011;25938;48.470;1.486;2023-04-24T09:52:08;5.33;;;2.90;;
39426;SDS011;25938;48.470;1.486;2023-04-24T09:54:35;4.95;;;3.08;;
39426;SDS011;25938;48.470;1.486;2023-04-24T09:57:01;4.68;;;2.58;;
39426;SDS011;25938;48.470;1.486;2023-04-24T09:59:27;5.07;;;3.10;;
39426;SDS011;25938;48.470;1.486;2023-04-24T10:01:54;3.95;;;2.67;;
39426;SDS011;25938;48.470;1.486;2023-04-24T10:04:23;7.93;;;2.80;;
39426;SDS011;25938;48.470;1.486;2023-04-24T10:06:52;4.75;;;2.30;;
39426;SDS011;25938;48.470;1.486;2023-04-24T10:09:24;3.20;;;2.47;;
39426;SDS011;25938;48.470;1.486;2023-04-24T10:11:51;3.75;;;2.22;;
39426;SDS011;25938;48.470;1.486;2023-04-24T10:14:19;4.43;;;2.53;;
39426;SDS011;25938;48.470;1.486;2023-04-24T10:16:46;3.90;;;2.42;;
39426;SDS011;25938;48.470;1.486;2023-04-24T10:19:16;5.97;;;3.83;;
39426;SDS011;25938;48.470;1.486;2023-04-24T10:21:45;4.03;;;2.20;;
39426;SDS011;25938;48.470;1.486;2023-04-24T10:24:12;4.20;;;2.22;;
39426;SDS011;25938;48.470;1.486;2023-04-24T10:26:40;3.35;;;2.67;;
39426;SDS011;25938;48.470;1.486;2023-04-24T10:29:05;4.00;;;2.30;;
39426;SDS011;25938;48.470;1.486;2023-04-24T10:31:35;2.88;;;2.00;;
39426;SDS011;25938;48.470;1.486;2023-04-24T10:34:02;3.95;;;3.35;;
39426;SDS011;25938;48.470;1.486;2023-04-24T10:36:29;5.45;;;2.60;;
39426;SDS011;25938;48.470;1.486;2023-04-24T10:38:57;2.28;;;2.10;;
39426;SDS011;25938;48.470;1.486;2023-04-24T10:41:25;6.05;;;3.03;;
39426;SDS011;25938;48.470;1.486;2023-04-24T10:46:52;5.00;;;1.92;;
39426;SDS011;25938;48.470;1.486;2023-04-24T10:49:27;2.33;;;1.98;;
39426;SDS011;25938;48.470;1.486;2023-04-24T10:51:54;2.65;;;1.88;;
39426;SDS011;25938;48.470;1.486;2023-04-24T10:59:51;3.83;;;2.17;;
39426;SDS011;25938;48.470;1.486;2023-04-24T11:02:35;5.75;;;2.17;;
39426;SDS011;25938;48.470;1.486;2023-04-24T11:05:05;3.90;;;3.35;;
39426;SDS011;25938;48.470;1.486;2023-04-24T11:10:37;3.65;;;2.35;;
39426;SDS011;25938;48.470;1.486;2023-04-24T11:13:08;3.47;;;1.70;;
39426;SDS011;25938;48.470;1.486;2023-04-24T11:15:34;4.88;;;2.40;;
39426;SDS011;25938;48.470;1.486;2023-04-24T11:18:00;3.53;;;2.03;;
39426;SDS011;25938;48.470;1.486;2023-04-24T11:20:25;2.95;;;1.67;;
39426;SDS011;25938;48.470;1.486;2023-04-24T11:22:52;3.13;;;1.65;;
39426;SDS011;25938;48.470;1.486;2023-04-24T11:25:19;4.18;;;1.80;;
39426;SDS011;25938;48.470;1.486;2023-04-24T11:27:47;5.38;;;1.95;;
39426;SDS011;25938;48.470;1.486;2023-04-24T11:30:18;1.75;;;1.60;;
39426;SDS011;25938;48.470;1.486;2023-04-24T11:32:49;2.47;;;1.90;;
39426;SDS011;25938;48.470;1.486;2023-04-24T11:37:53;2.15;;;1.30;;
39426;SDS011;25938;48.470;1.486;2023-04-24T11:40:20;3.63;;;2.00;;
39426;SDS011;25938;48.470;1.486;2023-04-24T11:42:51;3.80;;;1.83;;
39426;SDS011;25938;48.470;1.486;2023-04-24T11:45:24;3.58;;;1.63;;
39426;SDS011;25938;48.470;1.486;2023-04-24T11:47:52;2.92;;;1.48;;
39426;SDS011;25938;48.470;1.486;2023-04-24T11:50:19;2.78;;;1.55;;
39426;SDS011;25938;48.470;1.486;2023-04-24T11:52:48;3.15;;;1.65;;
39426;SDS011;25938;48.470;1.486;2023-04-24T11:57:43;2.08;;;1.55;;
39426;SDS011;25938;48.470;1.486;2023-04-24T12:00:17;1.80;;;1.30;;
39426;SDS011;25938;48.470;1.486;2023-04-24T12:02:46;1.45;;;1.35;;
39426;SDS011;25938;48.470;1.486;2023-04-24T12:05:19;4.05;;;1.50;;
39426;SDS011;25938;48.470;1.486;2023-04-24T12:07:48;4.00;;;1.55;;
39426;SDS011;25938;48.470;1.486;2023-04-24T12:10:14;3.03;;;1.23;;
39426;SDS011;25938;48.470;1.486;2023-04-24T12:12:45;2.13;;;1.25;;
39426;SDS011;25938;48.470;1.486;2023-04-24T12:15:11;2.97;;;1.58;;
39426;SDS011;25938;48.470;1.486;2023-04-24T12:17:40;1.90;;;1.52;;
39426;SDS011;25938;48.470;1.486;2023-04-24T12:20:07;2.70;;;1.58;;
39426;SDS011;25938;48.470;1.486;2023-04-24T12:22:44;3.78;;;1.20;;
39426;SDS011;25938;48.470;1.486;2023-04-24T12:25:10;1.33;;;1.00;;
39426;SDS011;25938;48.470;1.486;2023-04-24T12:27:37;4.47;;;2.85;;
39426;SDS011;25938;48.470;1.486;2023-04-24T12:30:03;1.80;;;1.00;;
39426;SDS011;25938;48.470;1.486;2023-04-24T12:32:30;1.48;;;1.30;;
39426;SDS011;25938;48.470;1.486;2023-04-24T12:34:56;4.18;;;1.55;;
39426;SDS011;25938;48.470;1.486;2023-04-24T12:37:23;1.95;;;1.23;;
39426;SDS011;25938;48.470;1.486;2023-04-24T12:40:03;3.08;;;1.45;;
39426;SDS011;25938;48.470;1.486;2023-04-24T12:42:33;3.85;;;1.67;;
39426;SDS011;25938;48.470;1.486;2023-04-24T12:45:00;1.38;;;0.98;;
39426;SDS011;25938;48.470;1.486;2023-04-24T12:47:31;0.90;;;0.90;;
39426;SDS011;25938;48.470;1.486;2023-04-24T12:49:58;1.42;;;1.20;;
39426;SDS011;25938;48.470;1.486;2023-04-24T12:52:24;3.33;;;1.27;;
39426;SDS011;25938;48.470;1.486;2023-04-24T12:54:54;2.45;;;1.80;;
39426;SDS011;25938;48.470;1.486;2023-04-24T12:57:22;2.50;;;1.30;;
39426;SDS011;25938;48.470;1.486;2023-04-24T12:59:48;1.65;;;1.17;;
39426;SDS011;25938;48.470;1.486;2023-04-24T13:02:14;3.28;;;1.20;;
39426;SDS011;25938;48.470;1.486;2023-04-24T13:04:43;1.42;;;0.90;;
39426;SDS011;25938;48.470;1.486;2023-04-24T13:07:11;1.67;;;0.98;;
39426;SDS011;25938;48.470;1.486;2023-04-24T13:09:37;2.53;;;1.45;;
39426;SDS011;25938;48.470;1.486;2023-04-24T13:12:03;1.95;;;1.17;;
39426;SDS011;25938;48.470;1.486;2023-04-24T13:14:30;1.48;;;1.23;;
39426;SDS011;25938;48.470;1.486;2023-04-24T13:16:56;7.80;;;7.30;;
39426;SDS011;25938;48.470;1.486;2023-04-24T13:19:23;1.50;;;1.05;;
39426;SDS011;25938;48.470;1.486;2023-04-24T13:21:50;3.80;;;1.08;;
39426;SDS011;25938;48.470;1.486;2023-04-24T13:24:16;3.67;;;1.10;;
39426;SDS011;25938;48.470;1.486;2023-04-24T13:26:42;0.90;;;0.80;;
39426;SDS011;25938;48.470;1.486;2023-04-24T13:29:08;3.42;;;1.10;;
39426;SDS011;25938;48.470;1.486;2023-04-24T13:31:34;1.52;;;1.42;;
39426;SDS011;25938;48.470;1.486;2023-04-24T13:34:00;1.55;;;0.77;;
39426;SDS011;25938;48.470;1.486;2023-04-24T13:36:27;1.42;;;0.88;;
39426;SDS011;25938;48.470;1.486;2023-04-24T13:38:52;3.42;;;1.50;;
39426;SDS011;25938;48.470;1.486;2023-04-24T13:41:18;2.72;;;1.67;;
39426;SDS011;25938;48.470;1.486;2023-04-24T13:43:44;2.75;;;1.25;;
39426;SDS011;25938;48.470;1.486;2023-04-24T13:46:10;1.40;;;1.30;;
39426;SDS011;25938;48.470;1.486;2023-04-24T13:48:35;2.70;;;0.90;;
39426;SDS011;25938;48.470;1.486;2023-04-24T13:51:01;2.20;;;0.60;;
39426;SDS011;25938;48.470;1.486;2023-04-24T13:53:27;1.33;;;0.75;;
39426;SDS011;25938;48.470;1.486;2023-04-24T13:55:52;5.60;;;3.22;;
39426;SDS011;25938;48.470;1.486;2023-04-24T13:58:18;1.15;;;0.80;;
39426;SDS011;25938;48.470;1.486;2023-04-24T14:00:44;4.20;;;0.90;;
39426;SDS011;25938;48.470;1.486;2023-04-24T14:03:10;0.95;;;0.80;;
39426;SDS011;25938;48.470;1.486;2023-04-24T14:05:36;0.98;;;0.88;;
39426;SDS011;25938;48.470;1.486;2023-04-24T14:08:01;1.75;;;0.95;;
39426;SDS011;25938;48.470;1.486;2023-04-24T14:10:27;2.00;;;1.05;;
39426;SDS011;25938;48.470;1.486;2023-04-24T14:12:53;1.77;;;1.05;;
39426;SDS011;25938;48.470;1.486;2023-04-24T14:15:19;1.98;;;0.77;;
39426;SDS011;25938;48.470;1.486;2023-04-24T14:17:44;1.45;;;0.90;;
39426;SDS011;25938;48.470;1.486;2023-04-24T14:20:11;1.63;;;0.60;;
39426;SDS011;25938;48.470;1.486;2023-04-24T14:22:37;1.88;;;0.98;;
39426;SDS011;25938;48.470;1.486;2023-04-24T14:25:03;1.58;;;1.00;;
39426;SDS011;25938;48.470;1.486;2023-04-24T14:27:30;2.05;;;0.93;;
39426;SDS011;25938;48.470;1.486;2023-04-24T14:29:57;1.95;;;1.10;;
39426;SDS011;25938;48.470;1.486;2023-04-24T14:32:23;1.75;;;1.05;;
39426;SDS011;25938;48.470;1.486;2023-04-24T14:34:48;1.98;;;1.23;;
39426;SDS011;25938;48.470;1.486;2023-04-24T14:37:14;2.38;;;1.10;;
39426;SDS011;25938;48.470;1.486;2023-04-24T14:39:40;1.98;;;1.10;;
39426;SDS011;25938;48.470;1.486;2023-04-24T14:42:06;1.95;;;1.02;;
39426;SDS011;25938;48.470;1.486;2023-04-24T14:44:31;1.63;;;1.10;;
39426;SDS011;25938;48.470;1.486;2023-04-24T14:46:58;1.27;;;1.10;;
39426;SDS011;25938;48.470;1.486;2023-04-24T14:49:23;3.63;;;0.80;;
39426;SDS011;25938;48.470;1.486;2023-04-24T14:51:49;1.63;;;0.88;;
39426;SDS011;25938;48.470;1.486;2023-04-24T14:54:15;3.72;;;1.08;;
39426;SDS011;25938;48.470;1.486;2023-04-24T14:56:40;2.90;;;0.65;;
39426;SDS011;25938;48.470;1.486;2023-04-24T14:59:07;2.15;;;0.95;;
39426;SDS011;25938;48.470;1.486;2023-04-24T15:01:33;3.92;;;1.13;;
39426;SDS011;25938;48.470;1.486;2023-04-24T15:03:59;2.28;;;0.80;;
39426;SDS011;25938;48.470;1.486;2023-04-24T15:06:24;3.97;;;0.82;;